Time;durP1;ratioP1;P1;durP2;ratioP2;P2;SDS_P1;SDS_P2;PMS_P1;PMS_P2;Temp;Humidity;BMP_temperature;BMP_pressure;BME280_temperature;BME280_humidity;BME280_pressure;Samples;Min_cycle;Max_cycle;Signal;HPM_P1;HPM_P2
2022/01/14 00:01:02;;;;;;;6.82;4.88;;;1.20;94.90;;;0.76;100.00;101144.69;5028931;28;20181;-63
2022/01/14 00:03:28;;;;;;;5.13;4.63;;;1.20;94.90;;;0.81;100.00;101146.38;5013637;28;20549;-64
2022/01/14 00:05:53;;;;;;;7.43;4.65;;;1.20;94.90;;;0.75;100.00;101149.78;5013759;28;20234;-63
2022/01/14 00:08:19;;;;;;;5.55;4.72;;;1.30;94.80;;;0.54;100.00;101102.47;5012714;28;20189;-63
2022/01/14 00:10:49;;;;;;;5.88;4.50;;;1.30;94.70;;;0.81;100.00;101156.56;5028798;28;20688;-63
2022/01/14 00:13:43;;;;;;;5.55;4.22;;;1.20;94.70;;;0.75;100.00;101148.09;5012733;28;20216;-63
2022/01/14 00:16:03;;;;;;;5.53;4.70;;;1.20;94.80;;;0.78;100.00;101154.84;5013355;28;20204;-63
2022/01/14 00:18:29;;;;;;;5.63;4.70;;;1.30;94.90;;;0.84;100.00;101161.59;5013501;28;20181;-63
2022/01/14 00:20:55;;;;;;;5.00;4.30;;;1.40;94.90;;;0.77;100.00;101150.63;5012352;28;20200;-63
2022/01/14 00:23:27;;;;;;;4.72;4.10;;;1.30;94.80;;;0.45;100.00;101110.09;5011723;28;20659;-63
2022/01/14 00:34:07;;;;;;;4.38;3.92;;;1.20;94.50;;;0.57;100.00;101149.88;5013304;28;20286;-63
2022/01/14 00:36:33;;;;;;;6.07;4.32;;;1.10;94.40;;;0.56;100.00;101148.16;4995844;28;20287;-63
2022/01/14 00:38:59;;;;;;;4.40;3.72;;;1.10;94.50;;;0.47;100.00;101143.97;5012675;28;20193;-63
2022/01/14 00:41:25;;;;;;;4.70;4.15;;;1.00;94.60;;;0.33;100.00;101136.38;5011996;28;20652;-64
2022/01/14 00:43:57;;;;;;;5.45;4.32;;;1.00;94.70;;;0.35;100.00;101129.59;5012203;28;20193;-63
2022/01/14 00:46:23;;;;;;;5.82;4.38;;;0.90;94.80;;;0.41;100.00;101133.84;5013268;28;20195;-63
2022/01/14 00:48:49;;;;;;;9.07;4.57;;;0.90;95.00;;;0.37;100.00;101125.38;5013136;28;20188;-63
2022/01/14 00:51:15;;;;;;;5.40;3.97;;;0.90;95.10;;;0.21;100.00;101103.41;4995566;28;20204;-63
2022/01/14 00:53:41;;;;;;;4.55;4.13;;;1.00;95.10;;;0.38;100.00;101132.13;5011728;28;20556;-63
2022/01/14 00:56:20;;;;;;;4.10;3.67;;;1.00;95.00;;;-0.01;100.00;101072.19;5011777;28;20200;-63
2022/01/14 01:01:30;;;;;;;7.35;5.13;;;0.90;95.00;;;0.37;100.00;101145.69;4998360;28;20264;-63
2022/01/14 01:03:56;;;;;;;6.43;4.60;;;0.80;95.10;;;0.31;100.00;101143.16;5011998;28;20305;-63
2022/01/14 01:06:22;;;;;;;5.75;4.38;;;0.80;95.10;;;0.28;100.00;101145.69;5011839;28;20315;-62
2022/01/14 01:08:51;;;;;;;7.05;4.90;;;0.80;95.20;;;0.27;100.00;101141.47;4995440;28;20188;-62
2022/01/14 01:11:23;;;;;;;9.82;4.88;;;0.80;95.30;;;-0.04;100.00;101086.56;5012939;28;20208;-62
2022/01/14 01:13:59;;;;;;;4.97;4.47;;;0.90;95.40;;;0.03;100.00;101095.00;5011630;28;20260;-63
2022/01/14 01:16:25;;;;;;;6.82;5.65;;;0.90;95.30;;;0.25;100.00;101140.63;5013054;28;20250;-62
2022/01/14 01:18:51;;;;;;;5.78;4.43;;;0.80;95.20;;;0.24;100.00;101144.03;5011594;28;20185;-62
2022/01/14 01:21:16;;;;;;;9.07;4.95;;;0.70;95.20;;;0.28;100.00;101145.69;5011804;28;20276;-62
2022/01/14 01:23:42;;;;;;;6.93;5.85;;;0.70;95.40;;;0.15;100.00;101133.88;5012643;28;20196;-62
2022/01/14 01:26:14;;;;;;;5.35;4.65;;;0.70;95.60;;;0.01;100.00;101097.53;5011797;28;20193;-62
2022/01/14 01:28:57;;;;;;;7.90;5.22;;;0.70;95.70;;;0.23;100.00;101132.19;5011348;28;20199;-62
2022/01/14 01:31:35;;;;;;;4.38;3.70;;;0.70;95.80;;;0.26;100.00;101144.84;5013013;28;20232;-62
2022/01/14 01:34:23;;;;;;;5.63;4.70;;;0.70;95.90;;;0.29;100.00;101142.31;5012081;28;20169;-62
2022/01/14 01:36:52;;;;;;;5.03;4.30;;;0.70;95.90;;;0.07;100.00;101106.84;5016532;28;20196;-62
2022/01/14 01:39:21;;;;;;;6.35;4.85;;;0.70;96.00;;;0.31;100.00;101127.94;5016353;28;20213;-62
2022/01/14 01:41:51;;;;;;;5.43;4.65;;;0.80;96.10;;;0.34;100.00;101137.22;5015067;28;20208;-62
2022/01/14 01:44:17;;;;;;;5.97;4.80;;;0.80;96.40;;;0.14;100.00;101090.75;5015092;28;20185;-62
2022/01/14 01:46:46;;;;;;;7.68;5.00;;;0.80;96.10;;;0.29;100.00;101111.84;5016189;28;20561;-62
2022/01/14 01:49:12;;;;;;;5.43;4.15;;;0.80;96.10;;;0.26;100.00;101111.00;5015085;28;20200;-62
2022/01/14 01:51:38;;;;;;;6.32;5.03;;;0.90;96.10;;;0.45;100.00;101137.19;5014769;28;20299;-63
2022/01/14 01:54:04;;;;;;;6.07;4.55;;;0.90;96.10;;;0.37;100.00;101132.97;5015037;28;20660;-62
2022/01/14 01:56:30;;;;;;;6.82;4.80;;;0.90;96.10;;;0.35;100.00;101127.06;5015714;28;20555;-62
2022/01/14 01:58:56;;;;;;;6.85;4.57;;;0.90;96.10;;;0.38;100.00;101129.59;5014606;28;20259;-62
2022/01/14 02:01:23;;;;;;;4.28;3.70;;;0.90;96.00;;;0.11;100.00;101083.13;5014733;28;20185;-62
2022/01/14 02:09:39;;;;;;;6.82;4.55;;;0.80;95.90;;;0.34;100.00;101127.06;5260446;23;20236;-63
2022/01/14 02:12:09;;;;;;;6.57;4.32;;;0.80;95.90;;;0.12;100.00;101089.91;4998627;28;20204;-63
2022/01/14 02:23:02;;;;;;;5.60;4.70;;;0.80;96.00;;;-0.04;100.00;101058.63;5000423;28;20176;-62
2022/01/14 02:25:29;;;;;;;6.57;4.78;;;0.80;96.00;;;0.16;100.00;101081.44;4998669;28;20193;-63
2022/01/14 02:28:06;;;;;;;5.80;4.75;;;0.80;96.00;;;0.27;100.00;101105.94;4998084;28;20280;-63
2022/01/14 02:30:35;;;;;;;5.68;4.57;;;0.70;95.90;;;0.28;100.00;101092.38;5014230;28;20247;-63
2022/01/14 02:33:01;;;;;;;4.80;4.05;;;0.70;96.00;;;0.36;100.00;101093.22;5015088;28;20217;-63
2022/01/14 02:35:28;;;;;;;7.90;4.03;;;0.80;96.10;;;-0.32;100.00;100974.13;5014777;28;20196;-63
2022/01/14 02:37:54;;;;;;;7.13;3.90;;;0.80;96.10;;;0.13;100.00;101051.84;5013470;28;20213;-63
2022/01/14 02:40:20;;;;;;;6.50;3.75;;;0.80;96.20;;;0.25;100.00;101074.63;4998446;28;20583;-63
2022/01/14 02:42:48;;;;;;;5.20;4.28;;;0.80;96.20;;;0.32;100.00;101078.00;4997760;28;20276;-63
2022/01/14 02:45:15;;;;;;;5.97;4.90;;;0.80;96.20;;;0.38;100.00;101080.50;5013670;28;20205;-63
2022/01/14 02:47:42;;;;;;;5.32;3.60;;;0.90;96.20;;;0.37;100.00;101083.91;5013249;28;20243;-63
2022/01/14 02:50:09;;;;;;;6.43;4.75;;;0.90;96.10;;;0.36;100.00;101066.97;4997303;28;20231;-62
2022/01/14 02:55:19;;;;;;;4.70;4.10;;;0.80;95.90;;;0.15;100.00;101022.22;5014976;28;20720;-62
2022/01/14 02:57:50;;;;;;;4.40;3.65;;;0.80;95.90;;;0.43;100.00;101070.31;4981576;28;20185;-62
2022/01/14 03:00:17;;;;;;;6.05;4.05;;;0.80;95.90;;;0.45;100.00;101061.03;5013362;28;20246;-62
2022/01/14 03:02:45;;;;;;;3.90;3.50;;;0.80;95.90;;;0.43;100.00;101061.03;5013900;28;20256;-62
2022/01/14 03:05:12;;;;;;;6.70;4.25;;;0.80;95.90;;;0.16;100.00;101016.31;5014747;28;20264;-63
2022/01/14 03:07:41;;;;;;;4.85;4.15;;;0.80;95.90;;;-0.15;100.00;101005.38;5013633;28;20189;-62
2022/01/14 03:10:08;;;;;;;7.60;5.40;;;0.80;95.90;;;0.17;100.00;101029.81;5013273;28;20224;-62
2022/01/14 03:12:34;;;;;;;7.65;4.40;;;0.80;95.90;;;0.21;100.00;101052.66;5013488;28;20276;-62
2022/01/14 03:15:00;;;;;;;7.93;4.15;;;0.80;95.80;;;0.35;100.00;101058.50;5013164;28;20193;-62
2022/01/14 03:17:28;;;;;;;6.75;4.00;;;0.80;95.70;;;0.11;100.00;101012.91;5014497;28;20243;-62
2022/01/14 03:19:54;;;;;;;4.93;4.32;;;0.80;95.70;;;0.32;100.00;101056.00;4997294;28;20215;-63
2022/01/14 03:22:26;;;;;;;5.18;4.20;;;0.70;95.60;;;0.34;100.00;101061.91;5013368;28;20639;-62
2022/01/14 03:27:18;;;;;;;6.53;4.65;;;0.70;95.50;;;0.23;100.00;101055.19;5013097;28;20549;-62
2022/01/14 03:29:44;;;;;;;5.30;4.22;;;0.70;95.50;;;0.19;100.00;101064.50;5013234;28;20220;-62
2022/01/14 03:32:10;;;;;;;6.47;4.97;;;0.70;95.50;;;0.10;100.00;101056.91;5013063;28;20586;-62
2022/01/14 03:34:36;;;;;;;5.15;4.03;;;0.70;95.50;;;0.07;100.00;101046.78;5013112;28;20192;-62
2022/01/14 03:37:03;;;;;;;5.95;4.78;;;0.70;95.40;;;0.09;100.00;101027.28;4996301;28;20756;-62
2022/01/14 03:39:29;;;;;;;6.72;4.50;;;0.70;95.40;;;0.06;100.00;101007.03;5013995;28;20189;-62
2022/01/14 03:41:55;;;;;;;5.78;4.03;;;0.70;95.40;;;0.30;100.00;101050.09;4996724;28;20196;-63
2022/01/14 03:44:20;;;;;;;7.32;5.13;;;0.70;95.50;;;0.27;100.00;101052.63;5014156;28;20177;-62
2022/01/14 03:46:46;;;;;;;5.80;4.47;;;0.70;95.50;;;0.23;100.00;101047.56;5014237;28;20258;-62
2022/01/14 03:49:12;;;;;;;4.85;4.35;;;0.70;95.40;;;0.22;100.00;101045.88;5012496;28;20642;-62
2022/01/14 03:51:38;;;;;;;4.05;3.60;;;0.80;95.30;;;0.11;100.00;101050.97;5013777;28;20205;-62
2022/01/14 03:54:04;;;;;;;4.65;4.07;;;0.80;95.10;;;0.10;100.00;101051.81;4996136;28;20204;-63
2022/01/14 03:56:31;;;;;;;3.88;3.53;;;0.70;95.00;;;-0.12;100.00;101027.38;4996187;28;20208;-62
2022/01/14 03:58:57;;;;;;;5.50;4.45;;;0.60;94.90;;;-0.25;100.00;101007.97;5013276;28;20242;-63
2022/01/14 04:01:22;;;;;;;4.55;3.92;;;0.60;95.10;;;-0.18;100.00;101035.00;5012556;28;20184;-62
2022/01/14 04:03:49;;;;;;;5.80;3.95;;;0.50;95.20;;;-0.10;100.00;101041.75;5012686;28;20189;-62
2022/01/14 04:06:15;;;;;;;6.00;4.53;;;0.50;95.40;;;-0.09;100.00;101038.38;5012391;28;20189;-62
2022/01/14 04:08:41;;;;;;;5.53;4.22;;;0.40;95.40;;;-0.10;100.00;101041.75;5012400;28;20688;-62
2022/01/14 04:11:07;;;;;;;4.83;4.27;;;0.40;95.60;;;-0.39;100.00;100985.16;4995902;28;20221;-62
2022/01/14 04:16:02;;;;;;;4.68;4.22;;;0.40;95.80;;;-0.49;100.00;100979.25;5012247;28;20283;-62
2022/01/14 04:18:28;;;;;;;4.45;3.75;;;0.40;95.80;;;-0.20;100.00;101034.16;5012539;28;20306;-62
2022/01/14 04:20:53;;;;;;;7.50;4.55;;;0.40;95.90;;;-0.21;100.00;101018.09;4996062;28;20335;-62
2022/01/14 04:23:24;;;;;;;4.97;4.30;;;0.40;95.80;;;-0.34;100.00;100995.31;5012025;28;20197;-62
2022/01/14 04:25:52;;;;;;;7.20;4.32;;;0.40;95.80;;;-0.23;100.00;101016.38;5012889;28;20222;-62
2022/01/14 04:28:18;;;;;;;5.07;3.90;;;0.30;95.90;;;-0.07;100.00;101021.44;5012827;28;20774;-62
2022/01/14 04:30:48;;;;;;;5.03;4.40;;;0.30;96.00;;;-0.03;100.00;101024.81;5013213;28;20228;-62
2022/01/14 04:33:14;;;;;;;5.50;4.05;;;0.40;96.10;;;-0.14;100.00;101013.84;5011869;28;20232;-62
2022/01/14 04:35:40;;;;;;;5.07;3.80;;;0.40;96.10;;;-0.16;100.00;101018.91;5012013;28;20216;-62
2022/01/14 04:38:06;;;;;;;5.15;4.60;;;0.40;96.10;;;-0.58;100.00;100945.50;4995517;28;20250;-62
2022/01/14 04:40:31;;;;;;;4.75;3.38;;;0.40;96.10;;;-0.41;100.00;100971.63;5012201;28;20638;-62
2022/01/14 04:42:59;;;;;;;5.35;3.60;;;0.40;96.10;;;-0.12;100.00;101024.84;5013389;28;20189;-62
2022/01/14 04:45:41;;;;;;;8.38;4.22;;;0.40;96.00;;;-0.12;100.00;101018.06;5012002;28;20547;-62
2022/01/14 04:48:09;;;;;;;6.45;4.35;;;0.40;96.00;;;-0.26;100.00;100971.63;4997742;28;20188;-62
2022/01/14 04:50:35;;;;;;;4.80;3.73;;;0.40;96.10;;;-0.15;100.00;100996.94;5012172;28;20743;-62
2022/01/14 04:53:01;;;;;;;5.13;4.47;;;0.40;96.20;;;-0.10;100.00;101006.22;5012727;28;20185;-62
2022/01/14 04:55:27;;;;;;;5.38;4.10;;;0.30;96.20;;;-0.21;100.00;100989.34;5011975;28;20286;-62
2022/01/14 04:57:54;;;;;;;5.47;4.28;;;0.40;96.20;;;-0.20;100.00;101008.78;4995589;28;20216;-62
2022/01/14 05:00:25;;;;;;;4.65;3.95;;;0.30;96.20;;;-0.24;100.00;100992.72;5011525;28;20185;-62
2022/01/14 05:02:54;;;;;;;3.92;3.50;;;0.30;96.20;;;-0.25;100.00;101003.75;4995712;28;20263;-62
2022/01/14 05:05:23;;;;;;;4.72;3.95;;;0.30;96.20;;;-0.11;100.00;101011.31;5011754;28;20196;-62
2022/01/14 05:07:50;;;;;;;7.40;4.45;;;0.30;96.20;;;-0.35;100.00;100975.84;5011715;28;20254;-62
2022/01/14 05:10:22;;;;;;;5.10;4.25;;;0.30;96.20;;;-0.23;100.00;100986.81;4981038;28;20286;-62
2022/01/14 05:12:48;;;;;;;7.32;4.70;;;0.30;96.20;;;-0.26;100.00;100974.16;5015737;28;20185;-62
2022/01/14 05:15:15;;;;;;;8.10;5.68;;;0.40;96.30;;;0.07;100.00;101018.03;5016411;28;20201;-62
2022/01/14 05:17:41;;;;;;;6.28;4.68;;;0.40;96.20;;;-0.08;100.00;101017.19;5015751;28;20189;-62
2022/01/14 05:20:08;;;;;;;5.88;4.30;;;0.40;96.10;;;-0.07;100.00;101021.44;5015488;28;20189;-62
2022/01/14 05:22:34;;;;;;;5.60;4.40;;;0.40;96.00;;;-0.21;100.00;101014.72;5015567;28;20189;-62
2022/01/14 05:25:00;;;;;;;5.32;4.20;;;0.40;95.90;;;-0.18;100.00;101024.84;5015495;28;20712;-62
2022/01/14 05:27:26;;;;;;;5.72;4.30;;;0.40;95.90;;;-0.22;100.00;101013.84;5016578;28;20200;-62
2022/01/14 05:29:52;;;;;;;5.93;4.20;;;0.30;95.80;;;-0.48;100.00;100983.47;5015086;28;20217;-63
2022/01/14 05:32:20;;;;;;;5.70;4.30;;;0.30;95.90;;;-0.22;100.00;101015.53;5016495;28;20200;-62
2022/01/14 05:34:46;;;;;;;6.07;4.85;;;0.30;95.90;;;-0.21;100.00;101012.16;4999590;28;20251;-62
2022/01/14 05:37:12;;;;;;;5.28;4.00;;;0.30;96.00;;;-0.22;100.00;100988.50;5015088;28;20212;-62
2022/01/14 05:39:38;;;;;;;6.63;5.25;;;0.30;96.00;;;-0.36;100.00;100958.94;5015439;28;20331;-62
2022/01/14 05:42:05;;;;;;;6.35;5.05;;;0.30;96.00;;;-0.17;100.00;101008.78;5014836;28;20197;-63
2022/01/14 05:44:31;;;;;;;6.97;5.03;;;0.30;96.00;;;-0.14;100.00;101003.69;5015208;28;20185;-62
2022/01/14 05:46:58;;;;;;;5.50;3.88;;;0.30;95.90;;;-0.20;100.00;101004.56;4982620;28;20181;-62
2022/01/14 05:49:24;;;;;;;5.72;5.13;;;0.30;95.90;;;-0.12;100.00;100989.31;5014894;28;20200;-62
2022/01/14 05:51:50;;;;;;;5.38;4.18;;;0.30;95.90;;;-0.14;100.00;100998.63;5014957;28;20574;-62
2022/01/14 05:54:16;;;;;;;6.45;4.85;;;0.30;95.90;;;-0.18;100.00;101000.34;5014800;28;20200;-62
2022/01/14 05:56:42;;;;;;;5.78;4.30;;;0.30;95.80;;;-0.40;100.00;100948.81;4998821;28;20192;-62
2022/01/14 05:59:08;;;;;;;8.43;4.68;;;0.30;95.80;;;-0.28;100.00;100957.25;4998724;28;20200;-62
2022/01/14 06:01:34;;;;;;;5.88;4.30;;;0.30;95.80;;;-0.06;100.00;101001.97;4998870;28;20192;-62
2022/01/14 06:04:01;;;;;;;7.03;4.72;;;0.30;95.80;;;-0.12;100.00;100992.69;5016121;28;20303;-62
2022/01/14 06:06:27;;;;;;;4.90;3.97;;;0.30;95.80;;;-0.19;100.00;100967.34;4998445;28;20189;-62
2022/01/14 06:08:53;;;;;;;7.00;4.95;;;0.30;95.70;;;-0.11;100.00;100984.25;5014396;28;20228;-62
2022/01/14 06:11:19;;;;;;;5.30;4.68;;;0.30;95.70;;;-0.04;100.00;100980.00;5014334;28;20300;-62
2022/01/14 06:13:45;;;;;;;5.65;4.78;;;0.30;95.60;;;-0.07;100.00;100982.53;5014507;28;20192;-62
2022/01/14 06:16:11;;;;;;;6.35;4.90;;;0.30;95.60;;;-0.10;100.00;100958.03;4997775;28;20189;-62
2022/01/14 06:18:37;;;;;;;7.47;5.13;;;0.30;95.50;;;0.02;100.00;100981.66;5013684;28;20205;-62
2022/01/14 06:21:04;;;;;;;5.68;4.47;;;0.30;95.60;;;-0.01;100.00;100972.38;5013341;28;20189;-62
2022/01/14 06:23:30;;;;;;;6.80;5.35;;;0.30;95.50;;;-0.17;100.00;100958.06;5014619;28;20247;-63
2022/01/14 06:25:56;;;;;;;7.68;5.57;;;0.40;95.60;;;-0.13;100.00;100963.09;5014249;28;20197;-62
2022/01/14 06:28:22;;;;;;;7.65;5.15;;;0.30;95.50;;;-0.10;100.00;100965.66;5014293;28;20241;-62
2022/01/14 06:30:48;;;;;;;5.37;4.83;;;0.40;95.50;;;0.02;100.00;100990.09;4998169;28;20209;-62
2022/01/14 06:33:14;;;;;;;9.25;6.07;;;0.40;95.40;;;0.02;100.00;100981.66;5015104;28;20239;-62
2022/01/14 06:35:39;;;;;;;5.60;4.82;;;0.40;95.40;;;-0.05;100.00;100986.75;5014356;28;20189;-62
2022/01/14 06:38:05;;;;;;;6.75;5.78;;;0.40;95.30;;;-0.15;100.00;100992.69;5015008;28;20197;-63
2022/01/14 06:40:32;;;;;;;11.75;6.03;;;0.30;95.20;;;-0.37;100.00;100953.03;5014222;28;20185;-62
2022/01/14 06:42:58;;;;;;;5.63;4.63;;;0.30;95.20;;;-0.23;100.00;100983.41;4997621;28;20185;-62
2022/01/14 06:45:24;;;;;;;7.35;5.10;;;0.30;95.20;;;-0.21;100.00;100986.81;5013888;28;20197;-61
2022/01/14 06:47:50;;;;;;;7.13;5.18;;;0.30;95.20;;;-0.37;100.00;100965.72;4981556;28;20559;-61
2022/01/14 06:50:16;;;;;;;9.13;4.88;;;0.30;95.20;;;-0.20;100.00;101014.72;5013390;28;20209;-62
2022/01/14 06:52:42;;;;;;;6.82;5.28;;;0.20;95.20;;;-0.25;100.00;101013.03;5013983;28;20204;-62
2022/01/14 06:55:08;;;;;;;7.20;5.35;;;0.20;95.20;;;-0.86;100.00;100988.59;5013649;28;20650;-62
2022/01/14 06:57:35;;;;;;;7.18;5.78;;;0.30;95.20;;;-0.59;100.00;101014.78;5013795;28;20190;-62
2022/01/14 07:00:13;;;;;;;7.78;6.15;;;0.20;94.90;;;-0.28;100.00;101018.94;5013822;28;20189;-62
2022/01/14 07:02:39;;;;;;;7.25;5.07;;;0.20;94.90;;;-0.26;100.00;101024.03;4997928;28;20267;-62
2022/01/14 07:05:05;;;;;;;8.00;4.82;;;0.20;95.00;;;-0.22;100.00;101029.06;5014773;28;20593;-62
2022/01/14 07:07:32;;;;;;;7.88;5.15;;;0.10;95.00;;;-0.26;100.00;101021.50;4996819;28;20193;-62
2022/01/14 07:09:58;;;;;;;8.93;5.87;;;0.20;95.10;;;-0.42;100.00;101016.44;5014784;28;20289;-62
2022/01/14 07:12:28;;;;;;;7.13;5.32;;;0.20;95.10;;;-0.15;100.00;101029.91;5013388;28;20184;-61
2022/01/14 07:14:56;;;;;;;5.25;4.75;;;0.20;95.10;;;-0.20;100.00;101021.47;5014933;28;20199;-62
2022/01/14 07:17:22;;;;;;;8.57;5.83;;;0.20;95.10;;;-0.70;100.00;100951.41;4997370;28;20193;-62
2022/01/14 07:19:51;;;;;;;5.97;4.97;;;0.20;95.10;;;-0.25;100.00;101026.56;4997408;28;20191;-62
2022/01/14 07:22:17;;;;;;;6.65;5.32;;;0.20;95.00;;;-0.29;100.00;101034.16;5014256;28;20188;-62
2022/01/14 07:24:43;;;;;;;5.38;4.68;;;0.20;94.90;;;-0.17;100.00;101036.69;5014726;28;20185;-62
2022/01/14 07:27:09;;;;;;;6.10;5.20;;;0.20;95.20;;;-0.19;100.00;101033.31;5013004;28;20655;-62
2022/01/14 07:29:35;;;;;;;7.57;5.03;;;0.20;94.90;;;-0.22;100.00;101023.16;5013212;28;20197;-62
2022/01/14 07:32:01;;;;;;;8.52;5.40;;;0.30;95.00;;;-0.10;100.00;101043.44;5012500;28;20223;-62
2022/01/14 07:34:27;;;;;;;4.93;4.47;;;0.30;95.00;;;-0.07;100.00;101051.88;5014422;28;20197;-62
2022/01/14 07:36:53;;;;;;;7.13;5.43;;;0.30;94.90;;;-0.07;100.00;101051.88;5012655;28;20251;-62
2022/01/14 07:39:23;;;;;;;6.23;5.00;;;0.30;94.90;;;-0.04;100.00;101043.41;5012704;28;20267;-62
2022/01/14 07:41:49;;;;;;;7.10;4.78;;;0.30;94.90;;;-0.39;100.00;100998.69;5012998;28;20177;-62
2022/01/14 07:44:15;;;;;;;6.93;5.53;;;0.40;95.00;;;-0.13;100.00;101038.38;5012698;28;20181;-62
2022/01/14 07:46:41;;;;;;;8.32;5.82;;;0.40;94.90;;;0.04;100.00;101049.31;5012955;28;20211;-62
2022/01/14 07:49:08;;;;;;;6.78;4.95;;;0.40;94.90;;;-0.02;100.00;101041.72;5012929;28;20192;-62
2022/01/14 07:51:33;;;;;;;;;;;0.50;94.90;;;-0.58;100.00;100941.28;5012853;28;20205;-62
2022/01/14 07:54:04;;;;;;;;;;;0.50;94.90;;;0.15;100.00;101049.28;4996943;28;19978;-63
2022/01/14 07:56:45;;;;;;;;;;;0.60;94.90;;;0.19;100.00;101039.13;5014150;28;19965;-63
2022/01/14 07:59:12;;;;;;;;;;;0.60;94.80;;;0.32;100.00;101025.53;5013164;28;19918;-63
2022/01/14 08:01:38;;;;;;;;;;;0.70;94.80;;;0.51;100.00;101041.50;5013035;28;19917;-63
2022/01/14 08:04:05;;;;;;;;;;;0.80;94.90;;;0.59;100.00;101042.31;4996700;28;19940;-63
2022/01/14 08:06:33;;;;;;;;;;;0.90;94.80;;;0.40;100.00;101004.34;4997225;28;19922;-63
2022/01/14 08:08:59;;;;;;;;;;;1.00;94.60;;;0.52;100.00;101010.19;5013877;28;19975;-63
2022/01/14 08:11:25;;;;;;;;;;;1.10;94.90;;;0.61;100.00;101011.84;5012521;28;19922;-63
2022/01/14 08:13:51;;;;;;;;;;;1.20;94.50;;;0.65;100.00;101006.75;5014479;28;19929;-62
2022/01/14 08:16:17;;;;;;;;;;;1.30;94.40;;;0.96;100.00;101050.59;4996250;28;20000;-63
2022/01/14 08:18:43;;;;;;;;;;;1.40;94.30;;;0.93;100.00;101048.06;5013839;28;19917;-63
2022/01/14 08:21:08;;;;;;;;;;;1.40;94.10;;;1.21;100.00;101047.88;4996275;28;19924;-64
2022/01/14 08:23:34;;;;;;;;;;;1.60;94.10;;;1.24;100.00;101042.75;5013734;28;20337;-66
2022/01/14 08:26:00;;;;;;;;;;;1.70;93.80;;;1.42;100.00;101040.06;5013934;28;19918;-78
2022/01/14 08:28:26;;;;;;;;;;;1.90;93.70;;;1.47;100.00;101033.25;4980109;28;19914;-78
2022/01/14 08:30:51;;;;;;;;;;;2.00;93.70;;;1.60;100.00;101044.16;5012610;28;19924;-72
2022/01/14 08:33:18;;;;;;;;;;;2.10;93.60;;;1.67;100.00;101010.16;5012154;28;20004;-71
2022/01/14 08:35:43;;;;;;;;;;;2.30;93.80;;;2.02;100.00;101045.44;4996952;28;19917;-73
2022/01/14 08:38:09;;;;;;;;;;;2.50;93.90;;;1.80;100.00;101011.75;5014277;28;19979;-74
2022/01/14 08:40:35;;;;;;;;;;;2.70;93.90;;;2.22;100.00;101046.06;5013624;28;19929;-75
2022/01/14 08:43:01;;;;;;;;;;;2.80;93.70;;;2.50;100.00;101033.81;5012904;28;19917;-74
2022/01/14 08:45:27;;;;;;;;;;;3.10;93.70;;;2.60;100.00;101051.53;5013012;28;19917;-77
2022/01/14 08:47:54;;;;;;;;;;;3.20;93.20;;;2.66;100.00;101050.59;5012777;28;19963;-72
2022/01/14 08:50:30;;;;;;;;;;;3.40;92.60;;;2.97;100.00;101045.91;5013400;28;19917;-71
2022/01/14 08:52:56;;;;;;;;;;;3.60;92.40;;;3.18;100.00;101045.59;5013686;28;19917;-69
2022/01/14 08:55:22;;;;;;;;;;;3.80;92.20;;;3.04;100.00;100994.00;5013393;28;20016;-71
2022/01/14 08:57:48;;;;;;;;;;;4.00;92.00;;;3.15;100.00;101004.00;5012426;28;19917;-74
2022/01/14 09:00:17;;;;;;;;;;;4.20;92.00;;;3.47;100.00;101044.28;5014101;28;19968;-59
2022/01/14 09:02:43;;;;;;;;;;;4.30;91.30;;;3.55;100.00;101027.13;5019912;28;19936;-71
2022/01/14 09:05:10;;;;;;;;;;;4.50;90.80;;;3.46;100.00;101009.47;5018880;28;20362;-75
2022/01/14 09:07:38;;;;;;;;;;;4.60;90.10;;;3.96;100.00;101042.56;5018414;28;20329;-78
2022/01/14 09:10:06;;;;;;;;;;;4.70;89.60;;;4.12;100.00;101038.84;5019229;28;19922;-72
2022/01/14 09:12:34;;;;;;;;;;;4.90;89.20;;;4.13;100.00;101039.69;5021641;28;19928;-69
2022/01/14 09:15:00;;;;;;;;;;;5.20;88.60;;;4.42;100.00;101034.00;5017008;28;19917;-70
2022/01/14 09:17:29;;;;;;;;;;;5.40;87.20;;;4.32;100.00;101037.63;5015763;28;20004;-71
2022/01/14 09:19:56;;;;;;;;;;;5.40;84.00;;;4.57;100.00;101031.13;4996660;28;19929;-78
2022/01/14 09:22:22;;;;;;;;;;;5.70;83.40;;;5.05;100.00;101039.41;5013414;28;20375;-72
2022/01/14 09:24:48;;;;;;;;;;;6.00;83.80;;;5.22;97.93;101010.88;5012030;28;19961;-71
2022/01/14 09:27:14;;;;;;;;;;;6.50;84.30;;;5.71;92.68;101036.09;5013035;28;19922;-76
2022/01/14 09:29:40;;;;;;;;;;;7.00;82.00;;;5.91;90.10;101023.66;5013261;28;19922;-73
2022/01/14 09:32:07;;;;;;;;;;;7.50;78.40;;;6.27;82.45;101034.59;5011798;28;19948;-73
2022/01/14 09:34:36;;;;;;;;;;;8.20;75.70;;;6.80;80.74;101039.88;5013072;28;19917;-70
2022/01/14 09:37:02;;;;;;;;;;;8.90;71.70;;;7.43;76.27;101036.16;4995719;28;20047;-75
2022/01/14 09:39:30;;;;;;;;;;;9.70;67.80;;;8.62;69.96;101036.25;4995517;28;19925;-75
2022/01/14 09:41:56;;;;;;;;;;;10.70;64.20;;;9.17;64.19;101039.25;5011876;28;20302;-70
2022/01/14 09:44:22;;;;;;;;;;;11.50;60.10;;;8.55;64.80;101049.41;4995445;28;19918;-72
2022/01/14 09:46:51;;;;;;;;;;;11.70;56.70;;;8.28;65.18;101028.06;5013298;28;19917;-75
2022/01/14 09:49:17;;;;;;;10.73;7.90;;;11.30;55.80;;;8.14;67.25;101002.88;5027802;28;19951;-69
2022/01/14 09:51:43;;;;;;;10.32;7.30;;;11.00;56.70;;;7.65;69.49;101039.72;5012580;28;20213;-73
2022/01/14 09:54:10;;;;;;;10.50;8.15;;;10.50;57.60;;;7.60;69.96;101039.88;4995547;28;20655;-72
2022/01/14 09:56:37;;;;;;;9.05;7.70;;;10.20;59.10;;;7.52;72.25;101011.03;5013959;28;20185;-74
2022/01/14 09:59:04;;;;;;;9.63;7.88;;;9.90;61.50;;;7.36;70.52;101042.41;5015049;28;20212;-71
2022/01/14 10:01:36;;;;;;;9.40;7.60;;;9.70;60.90;;;7.91;72.37;101046.50;5014838;28;20205;-73
2022/01/14 10:04:02;;;;;;;9.40;7.57;;;9.70;63.00;;;8.84;65.20;101046.56;4999565;28;20212;-71
2022/01/14 10:06:37;;;;;;;11.10;7.57;;;10.40;60.50;;;9.68;60.79;101038.84;5015829;28;20201;-71
2022/01/14 10:09:11;;;;;;;10.82;7.47;;;11.00;58.00;;;10.42;57.44;101044.25;5015656;28;20302;-74
2022/01/14 10:11:42;;;;;;;10.00;7.85;;;11.20;56.20;;;10.10;57.02;101022.44;5015721;28;20519;-71
2022/01/14 10:14:12;;;;;;;8.55;7.55;;;11.70;55.80;;;9.50;56.72;100983.75;4998567;28;20192;-72
2022/01/14 10:16:41;;;;;;;8.43;7.53;;;12.10;55.80;;;9.99;58.95;101056.41;5014595;28;20181;-75
2022/01/14 10:19:38;;;;;;;9.15;7.70;;;12.10;54.60;;;9.29;59.40;100964.06;4998907;28;20215;-77
2022/01/14 10:22:26;;;;;;;9.30;7.47;;;12.30;55.20;;;10.00;58.78;101034.06;5015450;28;20255;-73
2022/01/14 10:25:09;;;;;;;9.40;7.95;;;12.40;55.20;;;10.04;59.49;101031.28;5031145;28;20185;-73
2022/01/14 10:27:40;;;;;;;9.25;7.30;;;12.30;55.40;;;10.39;57.52;101042.63;4998755;28;20177;-75
2022/01/14 10:30:14;;;;;;;9.50;7.90;;;12.50;53.90;;;9.74;57.42;101030.00;5015624;28;20664;-77
2022/01/14 10:32:42;;;;;;;8.73;7.60;;;12.20;53.80;;;9.25;59.24;101020.91;5014304;28;20267;-75
2022/01/14 10:35:17;;;;;;;8.55;7.65;;;11.80;54.40;;;9.34;58.95;100975.00;4998440;28;20190;-73
2022/01/14 10:37:43;;;;;;;8.00;6.97;;;11.80;55.30;;;9.31;59.69;101005.19;5014378;28;20652;-75
2022/01/14 10:40:21;;;;;;;8.23;7.40;;;11.90;54.10;;;9.39;59.31;100973.06;4997737;28;20187;-76
2022/01/14 10:42:50;;;;;;;7.97;7.15;;;12.00;54.80;;;9.88;57.62;101004.50;4998918;28;20253;-76
2022/01/14 10:45:27;;;;;;;9.38;8.48;;;12.10;55.30;;;9.95;56.39;100966.38;4997379;28;20425;-78
2022/01/14 10:48:09;;;;;;;7.30;6.57;;;12.40;54.30;;;9.65;58.29;101009.78;5015225;28;20196;-78
2022/01/14 10:50:42;;;;;;;;;;;11.90;53.70;;;9.11;59.74;101019.72;4997799;28;20561;-72
2022/01/14 10:53:15;;;;;;;;;;;11.90;53.40;;;9.40;60.26;101008.22;5014332;28;19924;-73
2022/01/14 10:55:51;;;;;;;;;;;11.70;54.00;;;9.98;58.72;100998.00;5014214;28;19917;-74
2022/01/14 10:58:28;;;;;;;;;;;12.00;54.50;;;10.36;57.81;101005.84;5014789;28;19917;-76
2022/01/14 11:01:21;;;;;;;;;;;12.00;54.00;;;10.52;57.51;101001.66;5015344;28;19921;-76
2022/01/14 11:04:00;;;;;;;;;;;12.20;54.50;;;10.51;56.79;100998.22;5012822;28;20393;-72